createdAt,value
2022-10-26T00:01:12.068Z,100875.69
2022-10-26T00:03:40.930Z,100887.84
2022-10-26T00:06:13.418Z,100884.78
2022-10-26T00:08:40.369Z,100877.09
2022-10-26T00:11:07.883Z,100871.63
2022-10-26T00:13:35.697Z,100865.31
2022-10-26T00:16:08.802Z,100866.72
2022-10-26T00:18:35.448Z,100804.28
2022-10-26T00:21:06.774Z,100726.41
2022-10-26T00:23:34.175Z,100871.75
2022-10-26T00:26:00.967Z,100866.72
2022-10-26T00:28:27.533Z,100746.31
2022-10-26T00:30:54.588Z,100830.91
2022-10-26T00:33:21.575Z,100763.84
2022-10-26T00:35:49.314Z,100811.16
2022-10-26T00:38:15.929Z,100848.63
2022-10-26T00:40:44.169Z,100799.25
2022-10-26T00:43:35.942Z,100765.00
2022-10-26T00:46:06.240Z,100802.69
2022-10-26T00:48:38.253Z,100822.16
2022-10-26T00:51:13.839Z,100724.38
2022-10-26T00:53:41.488Z,100825.75
2022-10-26T00:56:11.574Z,100866.59
2022-10-26T00:58:41.769Z,100566.50
2022-10-26T01:01:08.971Z,100865.78
2022-10-26T01:03:36.718Z,100856.72
2022-10-26T01:06:04.946Z,100860.16
2022-10-26T01:08:32.170Z,100853.28
2022-10-26T01:11:00.307Z,100674.16
2022-10-26T01:13:30.199Z,100645.22
2022-10-26T01:16:20.549Z,100848.22
2022-10-26T01:18:50.775Z,100655.56
2022-10-26T01:21:53.105Z,100737.47
2022-10-26T01:24:43.250Z,100648.53
2022-10-26T01:27:19.472Z,100832.16
2022-10-26T01:30:10.783Z,100828.94
2022-10-26T01:32:42.501Z,100829.94
2022-10-26T01:35:14.395Z,100743.19
2022-10-26T01:37:55.038Z,100796.09
2022-10-26T01:40:29.850Z,100828.28
2022-10-26T01:42:59.067Z,100796.22
2022-10-26T01:45:27.991Z,100798.06
2022-10-26T01:47:56.398Z,100778.47
2022-10-26T01:50:23.434Z,100770.19
2022-10-26T01:52:50.807Z,100779.84
2022-10-26T01:55:47.979Z,100812.25
2022-10-26T01:58:15.282Z,100811.44
2022-10-26T02:00:49.850Z,100750.69
2022-10-26T02:03:30.246Z,100699.34
2022-10-26T02:06:03.067Z,100809.75
2022-10-26T02:08:50.477Z,100807.94
2022-10-26T02:11:40.081Z,100805.88
2022-10-26T02:14:09.398Z,100811.53
2022-10-26T02:16:58.973Z,100734.88
2022-10-26T02:19:32.779Z,100802.16
2022-10-26T02:22:19.276Z,100725.91
2022-10-26T02:24:48.324Z,100793.38
2022-10-26T02:27:22.055Z,100790.38
2022-10-26T02:29:51.992Z,100679.03
2022-10-26T02:32:20.391Z,100802.53
2022-10-26T02:34:49.519Z,100652.81
2022-10-26T02:37:19.778Z,100708.50
2022-10-26T02:39:49.540Z,100548.47
2022-10-26T02:42:16.485Z,100636.75
2022-10-26T02:44:49.214Z,100717.13
2022-10-26T02:47:16.639Z,100728.28
2022-10-26T02:49:43.710Z,100766.97
2022-10-26T02:52:22.388Z,100787.44
2022-10-26T02:54:52.740Z,100746.22
2022-10-26T02:57:51.611Z,100724.06
2022-10-26T03:00:19.096Z,100781.28
2022-10-26T03:02:54.538Z,100632.50
2022-10-26T03:05:24.856Z,100706.22
2022-10-26T03:07:51.693Z,100774.31
2022-10-26T03:10:18.982Z,100683.25
2022-10-26T03:12:45.499Z,100752.97
2022-10-26T03:15:12.488Z,100729.22
2022-10-26T03:17:39.254Z,100676.53
2022-10-26T03:20:06.399Z,100551.97
2022-10-26T03:22:32.887Z,100484.91
2022-10-26T03:24:59.510Z,100675.94
2022-10-26T03:27:26.997Z,100733.00
2022-10-26T03:29:54.166Z,100770.75
2022-10-26T03:32:22.284Z,100770.09
2022-10-26T03:34:48.852Z,100750.25
2022-10-26T03:37:15.489Z,100742.25
2022-10-26T03:39:43.155Z,100704.41
2022-10-26T03:42:09.603Z,100690.59
2022-10-26T03:44:36.123Z,100619.72
2022-10-26T03:47:02.638Z,100706.84
2022-10-26T03:49:29.223Z,100765.72
2022-10-26T03:51:55.776Z,100658.78
2022-10-26T03:54:23.167Z,100472.47
2022-10-26T03:56:52.673Z,100761.16
2022-10-26T03:59:22.499Z,100456.13
2022-10-26T04:01:52.678Z,100649.50
2022-10-26T04:04:22.235Z,100410.41
2022-10-26T04:06:48.864Z,100405.22
2022-10-26T04:09:18.038Z,100769.53
2022-10-26T04:11:44.562Z,100361.88
2022-10-26T04:14:11.381Z,100530.44
2022-10-26T04:16:37.995Z,100632.38
2022-10-26T04:19:05.056Z,100651.28
2022-10-26T04:21:33.109Z,100677.06
2022-10-26T04:23:59.689Z,100665.53
2022-10-26T04:26:26.210Z,100708.91
2022-10-26T04:28:52.721Z,100692.28
2022-10-26T04:31:20.234Z,100527.97
2022-10-26T04:33:46.780Z,100716.94
2022-10-26T04:36:13.309Z,100730.91
2022-10-26T04:38:41.838Z,100628.25
2022-10-26T04:41:08.353Z,100767.69
2022-10-26T04:43:34.897Z,100760.59
2022-10-26T04:46:01.444Z,100770.22
2022-10-26T04:48:28.840Z,100687.94
2022-10-26T04:50:58.898Z,100667.31
2022-10-26T04:53:26.875Z,100735.38
2022-10-26T04:56:01.121Z,100756.84
2022-10-26T04:58:29.041Z,100697.53
2022-10-26T05:00:56.007Z,100554.56
2022-10-26T05:03:22.902Z,100448.88
2022-10-26T05:05:49.456Z,100550.69
2022-10-26T05:08:16.344Z,100582.69
2022-10-26T05:10:42.906Z,100589.34
2022-10-26T05:13:10.753Z,100696.94
2022-10-26T05:15:37.304Z,100510.25
2022-10-26T05:18:05.742Z,100762.00
2022-10-26T05:20:34.730Z,100761.31
2022-10-26T05:23:04.937Z,100762.13
2022-10-26T05:25:34.495Z,100753.97
2022-10-26T05:28:04.189Z,100766.72
2022-10-26T05:30:31.480Z,100664.25
2022-10-26T05:32:59.616Z,100575.97
2022-10-26T05:35:29.938Z,100399.09
2022-10-26T05:37:56.503Z,100765.91
2022-10-26T05:40:23.476Z,100721.53
2022-10-26T05:42:51.432Z,100447.91
2022-10-26T05:45:18.448Z,100711.88
2022-10-26T05:47:45.516Z,100701.78
2022-10-26T05:50:13.449Z,100711.44
2022-10-26T05:52:42.755Z,100766.63
2022-10-26T05:55:10.509Z,100775.00
2022-10-26T05:57:37.705Z,100784.28
2022-10-26T06:00:09.280Z,100789.09
2022-10-26T06:02:57.635Z,100791.75
2022-10-26T06:05:27.912Z,100717.41
2022-10-26T06:07:54.781Z,100790.94
2022-10-26T06:10:21.620Z,100798.97
2022-10-26T06:12:48.702Z,100801.59
2022-10-26T06:15:19.595Z,100801.03
2022-10-26T06:17:53.866Z,100744.47
2022-10-26T06:20:34.153Z,100759.84
2022-10-26T06:23:32.064Z,100817.44
2022-10-26T06:26:11.414Z,100815.63
2022-10-26T06:28:57.066Z,100819.41
2022-10-26T06:31:23.744Z,100746.50
2022-10-26T06:33:52.512Z,100833.97
2022-10-26T06:36:30.067Z,100836.25
2022-10-26T06:39:12.385Z,100737.75
2022-10-26T06:41:40.137Z,100760.59
2022-10-26T06:44:07.250Z,100583.09
2022-10-26T06:46:46.142Z,100839.47
2022-10-26T06:49:23.067Z,100716.03
2022-10-26T06:52:00.045Z,100822.81
2022-10-26T06:54:51.527Z,100816.94
2022-10-26T06:57:22.922Z,100819.22
2022-10-26T06:59:53.409Z,100713.16
2022-10-26T07:02:20.809Z,100355.84
2022-10-26T07:04:48.052Z,100769.25
2022-10-26T07:07:31.074Z,100627.56
2022-10-26T07:09:57.978Z,100748.22
2022-10-26T07:12:24.490Z,100832.53
2022-10-26T07:14:51.064Z,100801.63
2022-10-26T07:17:17.718Z,100783.72
2022-10-26T07:19:44.844Z,100777.97
2022-10-26T07:22:11.865Z,100568.06
2022-10-26T07:24:40.063Z,100628.06
2022-10-26T07:27:06.632Z,100391.72
2022-10-26T07:29:35.232Z,100806.00
2022-10-26T07:32:01.859Z,100598.94
2022-10-26T07:34:28.424Z,100858.06
2022-10-26T07:36:54.895Z,100863.47
2022-10-26T07:39:22.061Z,100856.44
2022-10-26T07:41:48.582Z,100805.50
2022-10-26T07:44:15.512Z,100714.84
2022-10-26T07:46:42.114Z,100566.31
2022-10-26T07:49:08.750Z,100821.00
2022-10-26T07:51:35.265Z,100857.88
2022-10-26T07:54:04.907Z,100727.50
2022-10-26T07:56:31.712Z,100858.91
2022-10-26T07:58:58.372Z,100811.00
2022-10-26T08:01:26.108Z,100597.31
2022-10-26T08:03:54.900Z,100748.94
2022-10-26T08:06:22.567Z,100845.56
2022-10-26T08:08:49.443Z,100769.25
2022-10-26T08:11:16.950Z,100803.84
2022-10-26T08:13:43.678Z,100853.97
2022-10-26T08:16:10.394Z,100699.72
2022-10-26T08:18:37.033Z,100863.16
2022-10-26T08:21:11.631Z,100866.03
2022-10-26T08:23:40.068Z,100796.97
2022-10-26T08:26:07.218Z,100517.28
2022-10-26T08:28:33.755Z,100839.00
2022-10-26T08:31:00.301Z,100799.91
2022-10-26T08:33:26.911Z,100713.81
2022-10-26T08:36:00.674Z,100873.66
2022-10-26T08:38:27.896Z,100770.06
2022-10-26T08:40:56.745Z,100869.41
2022-10-26T08:43:30.084Z,100508.22
2022-10-26T08:46:11.465Z,100820.75
2022-10-26T08:48:49.943Z,100861.91
2022-10-26T08:51:37.441Z,100783.50
2022-10-26T08:54:06.695Z,100638.91
2022-10-26T08:56:40.905Z,100598.56
2022-10-26T08:59:20.104Z,100781.97
2022-10-26T09:01:46.835Z,100782.59
2022-10-26T09:04:13.495Z,100740.81
2022-10-26T09:06:59.986Z,100880.78
2022-10-26T09:09:42.427Z,100874.81
2022-10-26T09:12:36.823Z,100703.41
2022-10-26T09:15:18.722Z,100903.63
2022-10-26T09:17:57.465Z,100902.47
2022-10-26T09:21:01.985Z,100896.81
2022-10-26T09:23:32.875Z,100916.81
2022-10-26T09:26:01.973Z,100850.78
2022-10-26T09:28:37.739Z,100684.25
2022-10-26T09:31:05.019Z,100931.34
2022-10-26T09:33:36.816Z,100817.44
2022-10-26T09:36:11.854Z,100941.97
2022-10-26T09:38:43.614Z,100933.25
2022-10-26T09:41:15.531Z,100944.13
2022-10-26T09:44:03.243Z,100865.47
2022-10-26T09:47:03.333Z,100945.59
2022-10-26T09:49:43.401Z,100910.38
2022-10-26T09:54:45.015Z,100945.84
2022-10-26T09:57:15.946Z,100948.66
2022-10-26T09:59:42.829Z,100771.44
2022-10-26T10:02:37.583Z,100954.13
2022-10-26T10:05:27.519Z,100962.16
2022-10-26T10:08:14.276Z,100872.00
2022-10-26T10:10:53.680Z,100733.53
2022-10-26T10:13:22.906Z,100973.69
2022-10-26T10:15:55.185Z,100968.94
2022-10-26T10:18:24.145Z,100880.75
2022-10-26T10:20:58.409Z,100738.19
2022-10-26T10:23:28.073Z,100628.41
2022-10-26T10:26:06.922Z,100991.59
2022-10-26T10:28:34.500Z,100995.41
2022-10-26T10:31:18.010Z,100884.66
2022-10-26T10:33:45.742Z,100891.88
2022-10-26T10:36:29.610Z,100881.28
2022-10-26T10:38:57.144Z,100928.28
2022-10-26T10:41:29.029Z,101008.41
2022-10-26T10:44:15.188Z,101014.84
2022-10-26T10:46:42.087Z,101018.31
2022-10-26T10:49:22.088Z,100920.41
2022-10-26T10:51:49.628Z,101018.91
2022-10-26T10:54:21.136Z,100917.50
2022-10-26T10:56:52.596Z,100885.28
2022-10-26T10:59:33.961Z,101008.84
2022-10-26T11:02:06.647Z,101019.56
2022-10-26T11:04:34.085Z,101028.91
2022-10-26T11:07:04.672Z,100992.13
2022-10-26T11:09:36.032Z,100944.94
2022-10-26T11:12:28.908Z,101036.69
2022-10-26T11:15:19.112Z,101033.22
2022-10-26T11:18:12.067Z,101010.53
2022-10-26T11:20:51.869Z,100992.13
2022-10-26T11:23:25.465Z,101037.13
2022-10-26T11:26:18.503Z,101042.72
2022-10-26T11:28:53.529Z,100988.53
2022-10-26T11:31:31.772Z,101005.75
2022-10-26T11:34:21.003Z,100991.44
2022-10-26T11:36:54.538Z,101011.03
2022-10-26T11:39:29.959Z,100984.78
2022-10-26T11:42:02.012Z,100881.75
2022-10-26T11:44:49.211Z,101039.00
2022-10-26T11:47:49.414Z,100929.78
2022-10-26T11:50:21.995Z,101042.31
2022-10-26T11:52:58.720Z,100997.84
2022-10-26T11:55:25.345Z,100985.81
2022-10-26T11:57:55.144Z,101039.16
2022-10-26T12:00:23.243Z,100926.19
2022-10-26T12:02:55.775Z,101006.44
2022-10-26T12:05:37.075Z,100955.28
2022-10-26T12:08:10.731Z,101041.41
2022-10-26T12:10:41.672Z,100976.25
2022-10-26T12:13:33.562Z,100977.50
2022-10-26T12:16:40.601Z,101048.47
2022-10-26T12:19:18.025Z,100924.75
2022-10-26T12:21:46.946Z,100729.53
2022-10-26T12:24:22.211Z,101057.28
2022-10-26T12:26:52.991Z,101045.34
2022-10-26T12:29:34.841Z,101036.44
2022-10-26T12:32:02.381Z,101075.94
2022-10-26T12:34:31.845Z,101079.38
2022-10-26T12:36:58.574Z,101077.84
2022-10-26T12:39:38.096Z,101076.88
2022-10-26T12:42:05.578Z,101078.72
2022-10-26T12:44:45.672Z,101080.13
2022-10-26T12:47:27.435Z,101043.13
2022-10-26T12:50:07.188Z,101084.34
2022-10-26T12:52:45.969Z,101083.88
2022-10-26T12:55:13.214Z,101099.06
2022-10-26T12:57:57.165Z,101013.91
2022-10-26T13:00:26.590Z,100982.41
2022-10-26T13:03:30.943Z,101093.97
2022-10-26T13:06:04.232Z,101092.91
2022-10-26T13:08:47.880Z,101073.22
2022-10-26T13:11:17.710Z,101091.13
2022-10-26T13:13:45.586Z,101024.88
2022-10-26T13:16:16.504Z,101021.91
2022-10-26T13:18:46.104Z,101098.06
2022-10-26T13:21:16.883Z,101095.63
2022-10-26T13:23:58.304Z,101098.81
2022-10-26T13:26:27.592Z,101071.44
2022-10-26T13:28:57.250Z,101108.97
2022-10-26T13:31:33.496Z,101108.44
2022-10-26T13:34:20.763Z,100891.38
2022-10-26T13:37:13.326Z,100840.59
2022-10-26T13:39:43.626Z,101049.28
2022-10-26T13:42:18.166Z,101018.38
2022-10-26T13:45:03.336Z,101004.06
2022-10-26T13:47:42.252Z,100940.69
2022-10-26T13:50:17.273Z,101016.94
2022-10-26T13:52:58.443Z,100997.22
2022-10-26T13:55:46.954Z,101111.25
2022-10-26T13:58:23.186Z,101094.97
2022-10-26T14:01:02.767Z,101130.66
2022-10-26T14:03:33.173Z,101089.13
2022-10-26T14:06:00.101Z,100959.94
2022-10-26T14:08:26.731Z,101048.91
2022-10-26T14:10:57.810Z,101136.09
2022-10-26T14:13:27.103Z,101137.97
2022-10-26T14:15:56.927Z,101140.91
2022-10-26T14:18:30.206Z,101063.34
2022-10-26T14:21:01.404Z,101122.81
2022-10-26T14:23:29.490Z,100917.72
2022-10-26T14:25:59.027Z,101017.09
2022-10-26T14:28:29.197Z,101147.47
2022-10-26T14:31:15.260Z,101153.66
2022-10-26T14:33:44.748Z,101055.00
2022-10-26T14:36:12.097Z,101140.94
2022-10-26T14:38:45.102Z,101152.66
2022-10-26T14:41:15.785Z,101150.00
2022-10-26T14:43:43.869Z,101149.78
2022-10-26T14:46:20.223Z,101155.94
2022-10-26T14:48:58.776Z,101159.13
2022-10-26T14:51:30.588Z,101156.69
2022-10-26T14:54:01.018Z,101125.50
2022-10-26T14:56:29.342Z,101163.38
2022-10-26T14:58:57.558Z,101160.97
2022-10-26T15:01:29.256Z,101165.78
2022-10-26T15:04:04.823Z,100971.00
2022-10-26T15:06:35.593Z,101166.06
2022-10-26T15:09:07.382Z,101041.91
2022-10-26T15:11:35.087Z,101116.38
2022-10-26T15:14:02.793Z,101175.66
2022-10-26T15:16:34.350Z,101167.66
2022-10-26T15:19:08.727Z,100915.06
2022-10-26T15:21:45.075Z,101109.03
2022-10-26T15:24:26.332Z,101180.88
2022-10-26T15:26:53.236Z,101148.28
2022-10-26T15:29:48.865Z,101201.38
2022-10-26T15:32:32.083Z,101203.72
2022-10-26T15:35:11.628Z,101204.22
2022-10-26T15:37:38.698Z,101212.69
2022-10-26T15:40:06.529Z,101215.84
2022-10-26T15:42:38.129Z,101221.63
2022-10-26T15:45:19.572Z,101141.31
2022-10-26T15:47:47.240Z,101189.06
2022-10-26T15:50:16.365Z,101236.56
2022-10-26T15:52:46.670Z,101127.84
2022-10-26T15:55:16.494Z,101141.09
2022-10-26T15:57:43.399Z,101238.69
2022-10-26T16:00:15.923Z,101175.44
2022-10-26T16:02:45.227Z,101234.78
2022-10-26T16:05:14.780Z,101240.81
2022-10-26T16:07:43.215Z,101094.31
2022-10-26T16:10:17.419Z,101240.56
2022-10-26T16:12:44.077Z,101246.50
2022-10-26T16:15:17.980Z,101215.00
2022-10-26T16:17:45.277Z,101260.34
2022-10-26T16:20:19.335Z,101255.13
2022-10-26T16:22:48.298Z,101271.47
2022-10-26T16:25:21.627Z,101075.25
2022-10-26T16:27:49.587Z,101264.25
2022-10-26T16:30:17.240Z,101006.56
2022-10-26T16:32:44.156Z,101272.75
2022-10-26T16:35:12.216Z,100941.00
2022-10-26T16:37:39.358Z,101242.16
2022-10-26T16:40:07.994Z,101184.28
2022-10-26T16:42:35.159Z,101257.34
2022-10-26T16:45:02.941Z,100939.50
2022-10-26T16:47:36.289Z,101227.06
2022-10-26T16:50:04.370Z,101230.03
2022-10-26T16:52:31.030Z,100996.63
2022-10-26T16:54:57.712Z,101317.19
2022-10-26T16:57:24.407Z,101145.59
2022-10-26T16:59:51.138Z,101086.84
2022-10-26T17:02:20.898Z,101131.69
2022-10-26T17:04:47.705Z,101338.56
2022-10-26T17:07:14.286Z,101259.84
2022-10-26T17:09:41.022Z,101242.59
2022-10-26T17:12:07.628Z,101350.13
2022-10-26T17:14:34.335Z,101357.16
2022-10-26T17:17:02.098Z,101114.69
2022-10-26T17:19:28.849Z,101106.78
2022-10-26T17:21:55.608Z,101329.84
2022-10-26T17:24:22.387Z,101373.63
2022-10-26T17:26:48.917Z,101378.09
2022-10-26T17:29:15.616Z,101384.22
2022-10-26T17:31:42.223Z,101322.09
2022-10-26T17:34:10.569Z,101305.72
2022-10-26T17:36:37.213Z,101396.53
2022-10-26T17:39:04.277Z,101234.16
2022-10-26T17:41:30.839Z,101323.66
2022-10-26T17:43:57.435Z,101410.91
2022-10-26T17:46:26.316Z,101419.06
2022-10-26T17:48:57.869Z,101413.41
2022-10-26T17:51:26.090Z,101429.19
2022-10-26T17:53:53.475Z,101428.16
2022-10-26T17:56:23.095Z,101439.13
2022-10-26T17:58:58.119Z,101308.63
2022-10-26T18:01:25.868Z,101443.38
2022-10-26T18:03:53.218Z,101299.38
2022-10-26T18:06:23.086Z,101458.69
2022-10-26T18:08:50.359Z,101456.72
2022-10-26T18:11:25.341Z,101216.66
2022-10-26T18:14:01.106Z,101462.69
2022-10-26T18:16:28.214Z,101390.94
2022-10-26T18:19:00.323Z,101461.38
2022-10-26T18:21:29.370Z,101470.22
2022-10-26T18:23:56.286Z,101463.28
2022-10-26T18:26:26.309Z,101377.19
2022-10-26T18:28:53.289Z,101491.81
2022-10-26T18:31:21.752Z,101471.81
2022-10-26T18:33:49.087Z,101499.38
2022-10-26T18:36:18.427Z,101447.88
2022-10-26T18:38:47.219Z,101386.44
2022-10-26T18:41:15.858Z,101507.97
2022-10-26T18:43:44.588Z,101429.59
2022-10-26T18:46:19.168Z,101518.19
2022-10-26T18:48:48.175Z,101227.34
2022-10-26T18:51:18.302Z,101511.28
2022-10-26T18:53:46.359Z,101513.13
2022-10-26T18:56:16.277Z,101375.19
2022-10-26T18:58:45.035Z,101311.22
2022-10-26T19:01:20.287Z,101415.50
2022-10-26T19:03:48.182Z,101529.28
2022-10-26T19:06:20.207Z,101426.06
2022-10-26T19:08:47.309Z,101528.72
2022-10-26T19:11:16.303Z,101514.00
2022-10-26T19:13:45.084Z,101334.16
2022-10-26T19:16:17.377Z,101422.38
2022-10-26T19:18:55.866Z,101540.44
2022-10-26T19:21:23.496Z,101501.13
2022-10-26T19:23:52.657Z,101539.72
2022-10-26T19:26:25.344Z,101422.16
2022-10-26T19:29:02.672Z,101522.78
2022-10-26T19:31:33.604Z,101445.78
2022-10-26T19:34:00.844Z,101411.84
2022-10-26T19:36:28.495Z,101553.59
2022-10-26T19:38:56.951Z,101393.03
2022-10-26T19:41:26.537Z,101283.63
2022-10-26T19:43:54.794Z,101200.03
2022-10-26T19:46:24.535Z,101503.34
2022-10-26T19:48:54.140Z,101476.31
2022-10-26T19:51:21.359Z,101564.94
2022-10-26T19:53:48.450Z,101282.91
2022-10-26T19:56:15.820Z,101557.50
2022-10-26T19:58:44.413Z,101559.38
2022-10-26T20:01:13.798Z,101523.63
2022-10-26T20:03:41.080Z,101445.59
2022-10-26T20:06:12.825Z,101569.63
2022-10-26T20:08:44.995Z,101576.75
2022-10-26T20:11:15.519Z,101572.31
2022-10-26T20:13:44.803Z,101572.97
2022-10-26T20:16:12.295Z,101534.13
2022-10-26T20:18:42.757Z,101562.44
2022-10-26T20:21:16.309Z,101492.63
2022-10-26T20:23:43.518Z,101512.22
2022-10-26T20:26:18.030Z,101524.50
2022-10-26T20:28:48.893Z,101518.28
2022-10-26T20:31:15.528Z,101583.06
2022-10-26T20:33:42.906Z,101592.59
2022-10-26T20:36:10.978Z,101504.28
2022-10-26T20:38:39.273Z,101502.00
2022-10-26T20:41:09.254Z,101539.00
2022-10-26T20:43:38.913Z,101548.28
2022-10-26T20:46:06.216Z,101588.88
2022-10-26T20:48:33.066Z,101564.19
2022-10-26T20:54:01.106Z,101597.25
2022-10-26T20:56:29.161Z,101601.78
2022-10-26T20:58:58.119Z,101473.16
2022-10-26T21:01:30.726Z,101599.84
2022-10-26T21:03:59.922Z,101505.75
2022-10-26T21:06:27.363Z,101609.66
2022-10-26T21:08:56.345Z,101531.09
2022-10-26T21:11:24.710Z,101561.47
2022-10-26T21:13:53.824Z,101613.75
2022-10-26T21:18:52.455Z,101533.19
2022-10-26T21:21:18.987Z,101623.16
2022-10-26T21:23:46.537Z,101498.31
2022-10-26T21:26:13.319Z,101586.31
2022-10-26T21:28:41.974Z,101572.50
2022-10-26T21:31:11.103Z,101621.72
2022-10-26T21:33:38.327Z,101617.88
2022-10-26T21:36:07.242Z,101452.75
2022-10-26T21:38:35.344Z,101608.41
2022-10-26T21:41:16.251Z,101633.00
2022-10-26T21:43:48.351Z,101461.75
2022-10-26T21:46:16.360Z,101599.41
2022-10-26T21:48:42.963Z,101442.94
2022-10-26T21:51:20.342Z,101633.53
2022-10-26T21:53:47.803Z,101324.00
2022-10-26T21:56:17.334Z,101528.03
2022-10-26T21:58:46.394Z,101623.84
2022-10-26T22:01:15.299Z,101561.28
2022-10-26T22:03:42.878Z,101495.69
2022-10-26T22:06:13.437Z,101479.47
2022-10-26T22:08:40.061Z,101636.84
2022-10-26T22:11:15.201Z,101646.59
2022-10-26T22:13:43.727Z,101637.28
2022-10-26T22:16:25.227Z,101642.16
2022-10-26T22:18:56.392Z,101652.09
2022-10-26T22:21:25.626Z,101535.56
2022-10-26T22:23:52.261Z,101642.59
2022-10-26T22:26:21.639Z,101580.59
2022-10-26T22:28:50.900Z,101594.53
2022-10-26T22:31:20.341Z,101654.16
2022-10-26T22:33:55.515Z,101652.94
2022-10-26T22:36:22.673Z,101608.16
2022-10-26T22:38:50.296Z,101654.56
2022-10-26T22:41:18.398Z,101657.63
2022-10-26T22:43:45.513Z,101583.41
2022-10-26T22:46:17.640Z,101485.16
2022-10-26T22:48:47.354Z,101651.53
2022-10-26T22:51:15.946Z,101650.31
2022-10-26T22:53:43.241Z,101661.91
2022-10-26T22:56:11.678Z,101657.22
2022-10-26T22:58:39.245Z,101665.13
2022-10-26T23:01:08.343Z,101532.78
2022-10-26T23:03:35.417Z,101608.34
2022-10-26T23:06:03.314Z,101589.72
2022-10-26T23:08:29.918Z,101664.94
2022-10-26T23:11:00.525Z,101665.75
2022-10-26T23:13:28.930Z,101630.63
2022-10-26T23:15:56.151Z,101496.88
2022-10-26T23:18:23.385Z,101522.19
2022-10-26T23:20:52.971Z,101663.28
2022-10-26T23:23:19.527Z,101624.38
2022-10-26T23:25:46.392Z,101501.53
2022-10-26T23:28:13.702Z,101652.13
2022-10-26T23:30:40.195Z,101599.03
2022-10-26T23:33:07.837Z,101650.31
2022-10-26T23:35:34.377Z,101665.72
2022-10-26T23:38:00.912Z,101633.28
2022-10-26T23:40:28.578Z,101520.16
2022-10-26T23:42:55.819Z,101623.56
2022-10-26T23:45:22.360Z,101548.13
2022-10-26T23:47:49.580Z,101666.34
2022-10-26T23:50:16.847Z,101671.22
2022-10-26T23:52:49.524Z,101607.72
2022-10-26T23:55:17.576Z,101678.28
2022-10-26T23:57:44.072Z,101671.59
